sensor_id;sensor_type;location;lat;lon;timestamp;pressure;altitude;pressure_sealevel;temperature;humidity
5755;BME280;2902;42.130;24.732;2023-03-14T00:00:08;99973.72;;;5.79;55.89
5755;BME280;2902;42.130;24.732;2023-03-14T00:02:36;99974.50;;;5.71;55.68
5755;BME280;2902;42.130;24.732;2023-03-14T00:05:03;99977.44;;;5.68;56.35
5755;BME280;2902;42.130;24.732;2023-03-14T00:07:32;99972.78;;;5.62;56.81
5755;BME280;2902;42.130;24.732;2023-03-14T00:10:01;99967.50;;;5.62;56.85
5755;BME280;2902;42.130;24.732;2023-03-14T00:12:31;99964.41;;;5.67;56.97
5755;BME280;2902;42.130;24.732;2023-03-14T00:14:58;99963.38;;;5.60;57.25
5755;BME280;2902;42.130;24.732;2023-03-14T00:17:28;99946.91;;;5.40;57.87
5755;BME280;2902;42.130;24.732;2023-03-14T00:19:55;99962.63;;;5.32;57.31
5755;BME280;2902;42.130;24.732;2023-03-14T00:22:23;99950.66;;;5.20;57.94
5755;BME280;2902;42.130;24.732;2023-03-14T00:24:50;99950.53;;;5.04;58.21
5755;BME280;2902;42.130;24.732;2023-03-14T00:27:16;99945.50;;;4.93;58.88
5755;BME280;2902;42.130;24.732;2023-03-14T00:29:44;99952.09;;;4.80;58.83
5755;BME280;2902;42.130;24.732;2023-03-14T00:32:11;99944.88;;;4.82;59.82
5755;BME280;2902;42.130;24.732;2023-03-14T00:34:38;99928.53;;;4.78;59.17
5755;BME280;2902;42.130;24.732;2023-03-14T00:37:05;99935.63;;;4.78;59.00
5755;BME280;2902;42.130;24.732;2023-03-14T00:39:32;99927.25;;;4.65;59.09
5755;BME280;2902;42.130;24.732;2023-03-14T00:41:58;99918.16;;;4.59;59.82
5755;BME280;2902;42.130;24.732;2023-03-14T00:44:25;99923.50;;;4.67;59.23
5755;BME280;2902;42.130;24.732;2023-03-14T00:46:53;99914.03;;;4.74;59.85
5755;BME280;2902;42.130;24.732;2023-03-14T00:49:20;99914.41;;;4.79;59.06
5755;BME280;2902;42.130;24.732;2023-03-14T00:51:46;99910.50;;;4.83;59.53
5755;BME280;2902;42.130;24.732;2023-03-14T00:54:13;99914.25;;;4.81;59.71
5755;BME280;2902;42.130;24.732;2023-03-14T00:56:40;99910.50;;;4.83;59.67
5755;BME280;2902;42.130;24.732;2023-03-14T00:59:06;99910.22;;;4.86;59.38
5755;BME280;2902;42.130;24.732;2023-03-14T01:01:33;99901.03;;;4.90;59.49
5755;BME280;2902;42.130;24.732;2023-03-14T01:04:01;99896.47;;;4.92;59.33
5755;BME280;2902;42.130;24.732;2023-03-14T01:06:29;99889.94;;;4.96;59.68
5755;BME280;2902;42.130;24.732;2023-03-14T01:08:57;99887.28;;;4.96;59.24
5755;BME280;2902;42.130;24.732;2023-03-14T01:11:25;99882.97;;;4.95;60.05
5755;BME280;2902;42.130;24.732;2023-03-14T01:13:52;99889.94;;;4.96;60.03
5755;BME280;2902;42.130;24.732;2023-03-14T01:16:20;99877.06;;;4.93;60.26
5755;BME280;2902;42.130;24.732;2023-03-14T01:18:48;99874.72;;;4.90;59.72
5755;BME280;2902;42.130;24.732;2023-03-14T01:21:18;99879.53;;;4.95;60.46
5755;BME280;2902;42.130;24.732;2023-03-14T01:23:46;99873.81;;;4.99;61.17
5755;BME280;2902;42.130;24.732;2023-03-14T01:26:14;99873.00;;;4.99;60.88
5755;BME280;2902;42.130;24.732;2023-03-14T01:28:42;99874.13;;;4.96;60.74
5755;BME280;2902;42.130;24.732;2023-03-14T01:31:10;99875.63;;;4.81;60.63
5755;BME280;2902;42.130;24.732;2023-03-14T01:33:38;99872.78;;;4.75;61.26
5755;BME280;2902;42.130;24.732;2023-03-14T01:36:06;99865.84;;;4.56;61.08
5755;BME280;2902;42.130;24.732;2023-03-14T01:38:35;99868.38;;;4.48;62.18
5755;BME280;2902;42.130;24.732;2023-03-14T01:41:03;99869.19;;;4.49;62.09
5755;BME280;2902;42.130;24.732;2023-03-14T01:43:30;99871.41;;;4.53;62.11
5755;BME280;2902;42.130;24.732;2023-03-14T01:46:17;99871.91;;;4.57;61.19
5755;BME280;2902;42.130;24.732;2023-03-14T01:48:49;99860.88;;;4.53;60.85
5755;BME280;2902;42.130;24.732;2023-03-14T01:51:20;99861.00;;;4.52;61.39
5755;BME280;2902;42.130;24.732;2023-03-14T01:53:50;99864.03;;;4.57;61.42
5755;BME280;2902;42.130;24.732;2023-03-14T01:56:19;99859.59;;;4.57;60.75
5755;BME280;2902;42.130;24.732;2023-03-14T01:58:48;99861.16;;;4.50;60.68
5755;BME280;2902;42.130;24.732;2023-03-14T02:01:18;99856.28;;;4.38;61.45
5755;BME280;2902;42.130;24.732;2023-03-14T02:03:49;99855.00;;;4.42;61.04
5755;BME280;2902;42.130;24.732;2023-03-14T02:06:19;99853.78;;;4.36;60.96
5755;BME280;2902;42.130;24.732;2023-03-14T02:08:50;99852.44;;;4.32;61.28
5755;BME280;2902;42.130;24.732;2023-03-14T02:11:17;99852.56;;;4.31;60.67
5755;BME280;2902;42.130;24.732;2023-03-14T02:13:44;99853.84;;;4.27;61.17
5755;BME280;2902;42.130;24.732;2023-03-14T02:16:11;99851.34;;;4.25;61.44
5755;BME280;2902;42.130;24.732;2023-03-14T02:18:38;99850.22;;;4.28;61.61
5755;BME280;2902;42.130;24.732;2023-03-14T02:21:12;99844.69;;;4.31;60.42
5755;BME280;2902;42.130;24.732;2023-03-14T02:23:51;99842.06;;;4.31;60.32
5755;BME280;2902;42.130;24.732;2023-03-14T02:26:22;99843.38;;;4.17;61.38
5755;BME280;2902;42.130;24.732;2023-03-14T02:28:52;99840.75;;;4.17;61.46
5755;BME280;2902;42.130;24.732;2023-03-14T02:31:19;99842.81;;;4.23;61.43
5755;BME280;2902;42.130;24.732;2023-03-14T02:33:47;99847.00;;;4.16;60.75
5755;BME280;2902;42.130;24.732;2023-03-14T02:36:14;99842.91;;;4.04;61.16
5755;BME280;2902;42.130;24.732;2023-03-14T02:38:46;99842.09;;;4.04;61.73
5755;BME280;2902;42.130;24.732;2023-03-14T02:41:13;99846.22;;;4.06;61.06
5755;BME280;2902;42.130;24.732;2023-03-14T02:43:40;99839.16;;;4.07;60.58
5755;BME280;2902;42.130;24.732;2023-03-14T02:46:10;99836.97;;;4.02;61.21
5755;BME280;2902;42.130;24.732;2023-03-14T02:48:40;99852.06;;;4.00;60.81
5755;BME280;2902;42.130;24.732;2023-03-14T02:51:07;99844.63;;;3.96;61.31
5755;BME280;2902;42.130;24.732;2023-03-14T02:53:36;99849.03;;;3.95;61.94
5755;BME280;2902;42.130;24.732;2023-03-14T02:56:04;99858.56;;;3.96;61.76
5755;BME280;2902;42.130;24.732;2023-03-14T02:58:31;99856.22;;;3.93;61.67
5755;BME280;2902;42.130;24.732;2023-03-14T03:00:57;99856.22;;;3.93;62.36
5755;BME280;2902;42.130;24.732;2023-03-14T03:03:26;99848.50;;;3.92;62.20
5755;BME280;2902;42.130;24.732;2023-03-14T03:05:54;99855.56;;;3.91;61.92
5755;BME280;2902;42.130;24.732;2023-03-14T03:08:22;99858.47;;;3.88;62.19
5755;BME280;2902;42.130;24.732;2023-03-14T03:10:50;99860.94;;;3.90;62.42
5755;BME280;2902;42.130;24.732;2023-03-14T03:13:17;99866.22;;;3.90;62.47
5755;BME280;2902;42.130;24.732;2023-03-14T03:15:44;99864.81;;;3.95;62.74
5755;BME280;2902;42.130;24.732;2023-03-14T03:18:11;99866.59;;;3.95;62.52
5755;BME280;2902;42.130;24.732;2023-03-14T03:20:39;99865.78;;;3.94;62.85
5755;BME280;2902;42.130;24.732;2023-03-14T03:23:06;99858.72;;;3.95;63.42
5755;BME280;2902;42.130;24.732;2023-03-14T03:25:32;99854.06;;;3.89;63.44
5755;BME280;2902;42.130;24.732;2023-03-14T03:28:00;99855.41;;;3.93;63.44
5755;BME280;2902;42.130;24.732;2023-03-14T03:30:26;99854.81;;;3.99;62.53
5755;BME280;2902;42.130;24.732;2023-03-14T03:32:53;99853.69;;;4.01;63.18
5755;BME280;2902;42.130;24.732;2023-03-14T03:35:20;99858.66;;;4.04;63.21
5755;BME280;2902;42.130;24.732;2023-03-14T03:37:48;99848.16;;;4.04;63.37
5755;BME280;2902;42.130;24.732;2023-03-14T03:40:14;99851.66;;;3.95;64.54
5755;BME280;2902;42.130;24.732;2023-03-14T03:42:41;99845.16;;;3.99;64.29
5755;BME280;2902;42.130;24.732;2023-03-14T03:45:09;99847.34;;;4.04;63.82
5755;BME280;2902;42.130;24.732;2023-03-14T03:47:35;99846.50;;;4.03;64.17
5755;BME280;2902;42.130;24.732;2023-03-14T03:50:02;99853.41;;;4.04;63.99
5755;BME280;2902;42.130;24.732;2023-03-14T03:52:29;99858.66;;;4.04;64.07
5755;BME280;2902;42.130;24.732;2023-03-14T03:54:57;99851.47;;;4.06;64.69
5755;BME280;2902;42.130;24.732;2023-03-14T03:57:24;99845.91;;;4.09;63.88
5755;BME280;2902;42.130;24.732;2023-03-14T03:59:51;99843.97;;;4.11;64.06
5755;BME280;2902;42.130;24.732;2023-03-14T04:02:17;99841.50;;;4.10;63.87
5755;BME280;2902;42.130;24.732;2023-03-14T04:04:44;99839.16;;;4.07;63.91
5755;BME280;2902;42.130;24.732;2023-03-14T04:07:11;99837.66;;;4.04;64.85
5755;BME280;2902;42.130;24.732;2023-03-14T04:09:39;99831.91;;;3.91;65.46
5755;BME280;2902;42.130;24.732;2023-03-14T04:12:07;99831.41;;;3.78;65.26
5755;BME280;2902;42.130;24.732;2023-03-14T04:14:34;99828.41;;;3.73;66.11
5755;BME280;2902;42.130;24.732;2023-03-14T04:17:00;99830.06;;;3.74;66.86
5755;BME280;2902;42.130;24.732;2023-03-14T04:19:27;99831.47;;;3.59;66.10
5755;BME280;2902;42.130;24.732;2023-03-14T04:21:54;99818.53;;;3.48;66.38
5755;BME280;2902;42.130;24.732;2023-03-14T04:24:20;99819.84;;;3.25;67.70
5755;BME280;2902;42.130;24.732;2023-03-14T04:26:47;99823.88;;;3.10;67.59
5755;BME280;2902;42.130;24.732;2023-03-14T04:29:15;99818.09;;;2.97;67.61
5755;BME280;2902;42.130;24.732;2023-03-14T04:31:42;99822.50;;;2.97;69.27
5755;BME280;2902;42.130;24.732;2023-03-14T04:34:09;99821.44;;;2.90;69.13
5755;BME280;2902;42.130;24.732;2023-03-14T04:36:35;99818.94;;;2.88;68.83
5755;BME280;2902;42.130;24.732;2023-03-14T04:39:02;99817.97;;;2.89;69.70
5755;BME280;2902;42.130;24.732;2023-03-14T04:41:29;99812.44;;;2.92;68.96
5755;BME280;2902;42.130;24.732;2023-03-14T04:43:56;99815.88;;;2.93;69.15
5755;BME280;2902;42.130;24.732;2023-03-14T04:46:24;99811.06;;;2.88;69.80
5755;BME280;2902;42.130;24.732;2023-03-14T04:48:51;99808.00;;;2.93;69.17
5755;BME280;2902;42.130;24.732;2023-03-14T04:51:18;99818.38;;;2.94;70.22
5755;BME280;2902;42.130;24.732;2023-03-14T04:53:44;99817.81;;;3.10;69.11
5755;BME280;2902;42.130;24.732;2023-03-14T04:56:11;99805.22;;;3.13;69.12
5755;BME280;2902;42.130;24.732;2023-03-14T04:58:38;99821.09;;;3.31;68.70
5755;BME280;2902;42.130;24.732;2023-03-14T05:01:06;99824.34;;;3.42;68.75
5755;BME280;2902;42.130;24.732;2023-03-14T05:03:34;99832.56;;;3.66;67.33
5755;BME280;2902;42.130;24.732;2023-03-14T05:06:03;99841.53;;;4.00;67.07
5755;BME280;2902;42.130;24.732;2023-03-14T05:08:30;99834.63;;;4.26;66.07
5755;BME280;2902;42.130;24.732;2023-03-14T05:10:57;99832.47;;;4.74;64.41
5755;BME280;2902;42.130;24.732;2023-03-14T05:13:25;99850.13;;;5.42;62.94
5755;BME280;2902;42.130;24.732;2023-03-14T05:15:51;99847.81;;;5.99;60.48
5755;BME280;2902;42.130;24.732;2023-03-14T05:18:19;99855.53;;;6.34;57.31
5755;BME280;2902;42.130;24.732;2023-03-14T05:20:50;99859.28;;;6.73;55.27
5755;BME280;2902;42.130;24.732;2023-03-14T05:23:16;99855.00;;;6.96;52.91
5755;BME280;2902;42.130;24.732;2023-03-14T05:25:43;99854.34;;;6.94;52.51
5755;BME280;2902;42.130;24.732;2023-03-14T05:28:10;99857.47;;;7.05;52.61
5755;BME280;2902;42.130;24.732;2023-03-14T05:30:37;99861.94;;;7.45;52.23
5755;BME280;2902;42.130;24.732;2023-03-14T05:33:04;99861.34;;;7.89;50.64
5755;BME280;2902;42.130;24.732;2023-03-14T05:35:30;99863.41;;;8.10;51.03
5755;BME280;2902;42.130;24.732;2023-03-14T05:37:59;99865.00;;;8.35;50.83
5755;BME280;2902;42.130;24.732;2023-03-14T05:40:25;99859.28;;;8.54;50.39
5755;BME280;2902;42.130;24.732;2023-03-14T05:42:52;99862.31;;;8.96;49.75
5755;BME280;2902;42.130;24.732;2023-03-14T05:45:19;99864.25;;;9.02;49.94
5755;BME280;2902;42.130;24.732;2023-03-14T05:47:45;99858.19;;;9.16;49.11
5755;BME280;2902;42.130;24.732;2023-03-14T05:50:12;99861.19;;;9.50;49.08
5755;BME280;2902;42.130;24.732;2023-03-14T05:52:39;99859.91;;;9.46;48.11
5755;BME280;2902;42.130;24.732;2023-03-14T05:55:08;99867.91;;;9.38;48.30
5755;BME280;2902;42.130;24.732;2023-03-14T05:57:35;99861.78;;;9.60;47.47
5755;BME280;2902;42.130;24.732;2023-03-14T06:00:02;99862.75;;;9.59;48.20
5755;BME280;2902;42.130;24.732;2023-03-14T06:02:29;99863.16;;;9.99;45.92
5755;BME280;2902;42.130;24.732;2023-03-14T06:04:55;99870.78;;;10.31;45.27
5755;BME280;2902;42.130;24.732;2023-03-14T06:07:22;99858.56;;;10.37;44.68
5755;BME280;2902;42.130;24.732;2023-03-14T06:09:49;99864.22;;;10.63;43.54
5755;BME280;2902;42.130;24.732;2023-03-14T06:12:17;99862.78;;;10.46;44.02
5755;BME280;2902;42.130;24.732;2023-03-14T06:14:44;99856.31;;;10.69;42.83
5755;BME280;2902;42.130;24.732;2023-03-14T06:17:11;99867.16;;;10.53;43.78
5755;BME280;2902;42.130;24.732;2023-03-14T06:19:37;99852.94;;;10.61;44.61
5755;BME280;2902;42.130;24.732;2023-03-14T06:22:04;99849.38;;;10.89;42.45
5755;BME280;2902;42.130;24.732;2023-03-14T06:24:31;99853.50;;;11.13;41.84
5755;BME280;2902;42.130;24.732;2023-03-14T06:26:57;99845.44;;;11.28;41.31
5755;BME280;2902;42.130;24.732;2023-03-14T06:29:26;99843.94;;;11.46;40.90
5755;BME280;2902;42.130;24.732;2023-03-14T06:31:52;99834.91;;;11.41;40.00
5755;BME280;2902;42.130;24.732;2023-03-14T06:34:19;99848.75;;;11.57;40.04
5755;BME280;2902;42.130;24.732;2023-03-14T06:36:46;99837.81;;;12.01;39.77
5755;BME280;2902;42.130;24.732;2023-03-14T06:39:12;99840.78;;;12.25;38.38
5755;BME280;2902;42.130;24.732;2023-03-14T06:41:39;99849.41;;;12.27;38.63
5755;BME280;2902;42.130;24.732;2023-03-14T06:44:06;99850.97;;;12.62;37.44
5755;BME280;2902;42.130;24.732;2023-03-14T06:46:34;99838.06;;;12.59;37.78
5755;BME280;2902;42.130;24.732;2023-03-14T06:49:01;99845.53;;;12.90;37.51
5755;BME280;2902;42.130;24.732;2023-03-14T06:51:28;99844.34;;;13.18;37.03
5755;BME280;2902;42.130;24.732;2023-03-14T06:53:54;99846.38;;;13.10;36.93
5755;BME280;2902;42.130;24.732;2023-03-14T06:56:21;99841.38;;;12.87;36.79
5755;BME280;2902;42.130;24.732;2023-03-14T06:58:48;99830.41;;;13.29;36.44
5755;BME280;2902;42.130;24.732;2023-03-14T07:01:20;99828.13;;;13.52;35.92
5755;BME280;2902;42.130;24.732;2023-03-14T07:03:49;99830.00;;;13.58;35.97
5755;BME280;2902;42.130;24.732;2023-03-14T07:06:16;99829.97;;;13.19;36.38
5755;BME280;2902;42.130;24.732;2023-03-14T07:08:42;99822.81;;;13.00;38.15
5755;BME280;2902;42.130;24.732;2023-03-14T07:11:09;99818.31;;;13.20;36.76
5755;BME280;2902;42.130;24.732;2023-03-14T07:13:36;99820.47;;;12.78;37.06
5755;BME280;2902;42.130;24.732;2023-03-14T07:16:03;99817.19;;;12.82;39.45
5755;BME280;2902;42.130;24.732;2023-03-14T07:18:30;99804.03;;;12.74;37.05
5755;BME280;2902;42.130;24.732;2023-03-14T07:20:58;99808.44;;;13.01;36.81
5755;BME280;2902;42.130;24.732;2023-03-14T07:23:25;99806.41;;;13.29;37.06
5755;BME280;2902;42.130;24.732;2023-03-14T07:25:52;99804.94;;;13.59;36.97
5755;BME280;2902;42.130;24.732;2023-03-14T07:28:19;99796.25;;;13.83;35.20
5755;BME280;2902;42.130;24.732;2023-03-14T07:30:46;99789.78;;;14.17;33.57
5755;BME280;2902;42.130;24.732;2023-03-14T07:33:13;99796.94;;;14.29;33.82
5755;BME280;2902;42.130;24.732;2023-03-14T07:35:40;99792.66;;;14.15;33.36
5755;BME280;2902;42.130;24.732;2023-03-14T07:38:08;99794.75;;;14.57;35.76
5755;BME280;2902;42.130;24.732;2023-03-14T07:40:35;99787.28;;;14.72;33.45
5755;BME280;2902;42.130;24.732;2023-03-14T07:43:01;99780.72;;;14.68;32.87
5755;BME280;2902;42.130;24.732;2023-03-14T07:45:28;99789.38;;;14.13;34.25
5755;BME280;2902;42.130;24.732;2023-03-14T07:47:55;99777.09;;;14.06;36.91
5755;BME280;2902;42.130;24.732;2023-03-14T07:50:22;99778.88;;;14.31;37.41
5755;BME280;2902;42.130;24.732;2023-03-14T07:52:49;99772.59;;;15.06;41.25
5755;BME280;2902;42.130;24.732;2023-03-14T07:55:17;99771.69;;;16.04;35.22
5755;BME280;2902;42.130;24.732;2023-03-14T07:57:44;99776.25;;;16.51;33.11
5755;BME280;2902;42.130;24.732;2023-03-14T08:00:12;99776.06;;;17.05;31.59
5755;BME280;2902;42.130;24.732;2023-03-14T08:02:39;99769.13;;;17.38;29.19
5755;BME280;2902;42.130;24.732;2023-03-14T08:05:07;99773.94;;;17.48;30.52
5755;BME280;2902;42.130;24.732;2023-03-14T08:07:34;99765.75;;;17.54;31.39
5755;BME280;2902;42.130;24.732;2023-03-14T08:10:03;99771.47;;;17.81;29.69
5755;BME280;2902;42.130;24.732;2023-03-14T08:12:31;99761.53;;;17.93;28.86
5755;BME280;2902;42.130;24.732;2023-03-14T08:14:58;99765.44;;;18.13;28.15
5755;BME280;2902;42.130;24.732;2023-03-14T08:17:25;99766.69;;;18.22;28.53
5755;BME280;2902;42.130;24.732;2023-03-14T08:19:52;99752.81;;;18.14;28.96
5755;BME280;2902;42.130;24.732;2023-03-14T08:22:18;99763.47;;;18.09;27.78
5755;BME280;2902;42.130;24.732;2023-03-14T08:24:45;99763.09;;;18.17;27.83
5755;BME280;2902;42.130;24.732;2023-03-14T08:27:12;99758.50;;;18.29;29.43
5755;BME280;2902;42.130;24.732;2023-03-14T08:29:41;99759.31;;;17.90;27.92
5755;BME280;2902;42.130;24.732;2023-03-14T08:32:07;99752.91;;;17.68;27.93
5755;BME280;2902;42.130;24.732;2023-03-14T08:34:34;99755.81;;;17.78;27.72
5755;BME280;2902;42.130;24.732;2023-03-14T08:37:01;99748.69;;;17.72;27.59
5755;BME280;2902;42.130;24.732;2023-03-14T08:39:27;99709.31;;;17.66;27.82
5755;BME280;2902;42.130;24.732;2023-03-14T08:41:54;99736.34;;;17.48;27.33
5755;BME280;2902;42.130;24.732;2023-03-14T08:44:21;99743.56;;;17.24;28.02
5755;BME280;2902;42.130;24.732;2023-03-14T08:46:49;99741.28;;;17.10;28.51
5755;BME280;2902;42.130;24.732;2023-03-14T08:49:16;99744.00;;;17.33;27.84
5755;BME280;2902;42.130;24.732;2023-03-14T08:51:42;99722.19;;;17.52;27.48
5755;BME280;2902;42.130;24.732;2023-03-14T08:54:10;99714.97;;;17.53;27.50
5755;BME280;2902;42.130;24.732;2023-03-14T08:56:37;99722.88;;;17.71;27.14
5755;BME280;2902;42.130;24.732;2023-03-14T08:59:04;99709.06;;;17.79;27.00
5755;BME280;2902;42.130;24.732;2023-03-14T09:01:31;99699.47;;;17.83;27.00
5755;BME280;2902;42.130;24.732;2023-03-14T09:03:59;99701.06;;;17.56;26.87
5755;BME280;2902;42.130;24.732;2023-03-14T09:06:25;99695.34;;;17.64;27.07
5755;BME280;2902;42.130;24.732;2023-03-14T09:08:52;99682.63;;;17.48;27.40
5755;BME280;2902;42.130;24.732;2023-03-14T09:11:19;99671.28;;;17.23;27.56
5755;BME280;2902;42.130;24.732;2023-03-14T09:13:46;99672.94;;;17.47;27.70
5755;BME280;2902;42.130;24.732;2023-03-14T09:16:14;99667.84;;;17.73;27.49
5755;BME280;2902;42.130;24.732;2023-03-14T09:18:40;99660.84;;;16.28;28.70
5755;BME280;2902;42.130;24.732;2023-03-14T09:21:08;99658.16;;;16.46;29.04
5755;BME280;2902;42.130;24.732;2023-03-14T09:23:35;99651.28;;;16.32;29.03
5755;BME280;2902;42.130;24.732;2023-03-14T09:26:02;99648.84;;;16.60;29.56
5755;BME280;2902;42.130;24.732;2023-03-14T09:28:29;99639.91;;;17.00;28.66
5755;BME280;2902;42.130;24.732;2023-03-14T09:30:56;99635.34;;;17.01;28.40
5755;BME280;2902;42.130;24.732;2023-03-14T09:33:23;99633.00;;;16.70;28.34
5755;BME280;2902;42.130;24.732;2023-03-14T09:35:50;99627.25;;;16.43;28.31
5755;BME280;2902;42.130;24.732;2023-03-14T09:38:18;99618.69;;;16.35;28.94
5755;BME280;2902;42.130;24.732;2023-03-14T09:40:46;99621.69;;;16.27;28.96
5755;BME280;2902;42.130;24.732;2023-03-14T09:43:14;99621.31;;;16.53;29.35
5755;BME280;2902;42.130;24.732;2023-03-14T09:45:43;99619.59;;;16.70;28.18
5755;BME280;2902;42.130;24.732;2023-03-14T09:48:15;99608.50;;;16.55;28.35
5755;BME280;2902;42.130;24.732;2023-03-14T09:50:45;99616.34;;;16.91;27.66
5755;BME280;2902;42.130;24.732;2023-03-14T09:53:14;99616.69;;;17.06;27.44
5755;BME280;2902;42.130;24.732;2023-03-14T09:55:45;99627.97;;;17.42;26.94
5755;BME280;2902;42.130;24.732;2023-03-14T09:58:14;99616.63;;;17.52;26.27
5755;BME280;2902;42.130;24.732;2023-03-14T10:00:42;99615.53;;;17.64;25.96
5755;BME280;2902;42.130;24.732;2023-03-14T10:03:21;99608.47;;;17.86;25.96
5755;BME280;2902;42.130;24.732;2023-03-14T10:05:49;99600.50;;;18.08;25.16
5755;BME280;2902;42.130;24.732;2023-03-14T10:08:16;99595.41;;;18.23;24.84
5755;BME280;2902;42.130;24.732;2023-03-14T10:10:44;99592.09;;;18.49;24.93
5755;BME280;2902;42.130;24.732;2023-03-14T10:13:16;99589.00;;;18.57;24.57
5755;BME280;2902;42.130;24.732;2023-03-14T10:15:47;99576.13;;;18.26;24.99
5755;BME280;2902;42.130;24.732;2023-03-14T10:18:15;99570.25;;;18.29;25.13
5755;BME280;2902;42.130;24.732;2023-03-14T10:20:44;99566.47;;;18.13;25.36
5755;BME280;2902;42.130;24.732;2023-03-14T10:23:25;99553.59;;;18.32;25.70
5755;BME280;2902;42.130;24.732;2023-03-14T10:26:05;99550.53;;;18.23;25.09
5755;BME280;2902;42.130;24.732;2023-03-14T10:28:34;99550.50;;;17.62;25.92
5755;BME280;2902;42.130;24.732;2023-03-14T10:31:04;99531.63;;;17.46;26.58
5755;BME280;2902;42.130;24.732;2023-03-14T10:33:32;99537.84;;;17.23;26.63
5755;BME280;2902;42.130;24.732;2023-03-14T10:36:02;99528.03;;;17.29;26.91
5755;BME280;2902;42.130;24.732;2023-03-14T10:38:29;99531.31;;;17.31;27.14
5755;BME280;2902;42.130;24.732;2023-03-14T10:40:57;99518.03;;;17.24;26.94
5755;BME280;2902;42.130;24.732;2023-03-14T10:43:31;99513.47;;;17.25;27.20
5755;BME280;2902;42.130;24.732;2023-03-14T10:45:59;99507.91;;;17.15;27.03
5755;BME280;2902;42.130;24.732;2023-03-14T10:48:32;99502.81;;;17.02;27.36
5755;BME280;2902;42.130;24.732;2023-03-14T10:51:05;99495.91;;;17.34;26.51
5755;BME280;2902;42.130;24.732;2023-03-14T10:53:40;99491.78;;;17.54;26.41
5755;BME280;2902;42.130;24.732;2023-03-14T10:56:11;99486.59;;;17.64;26.45
5755;BME280;2902;42.130;24.732;2023-03-14T10:58:42;99488.16;;;17.77;26.38
5755;BME280;2902;42.130;24.732;2023-03-14T11:01:23;99476.69;;;17.25;26.92
5755;BME280;2902;42.130;24.732;2023-03-14T11:03:55;99460.38;;;16.76;27.74
5755;BME280;2902;42.130;24.732;2023-03-14T11:06:27;99457.22;;;16.79;28.19
5755;BME280;2902;42.130;24.732;2023-03-14T11:09:02;99447.91;;;16.70;28.04
5755;BME280;2902;42.130;24.732;2023-03-14T11:11:34;99441.22;;;16.84;27.79
5755;BME280;2902;42.130;24.732;2023-03-14T11:14:16;99436.66;;;16.45;28.47
5755;BME280;2902;42.130;24.732;2023-03-14T11:16:53;99427.50;;;16.69;28.70
5755;BME280;2902;42.130;24.732;2023-03-14T11:19:34;99420.09;;;16.87;28.50
5755;BME280;2902;42.130;24.732;2023-03-14T11:22:10;99408.34;;;16.77;28.81
5755;BME280;2902;42.130;24.732;2023-03-14T11:24:48;99395.84;;;16.82;28.67
5755;BME280;2902;42.130;24.732;2023-03-14T11:27:18;99383.19;;;16.78;29.20
5755;BME280;2902;42.130;24.732;2023-03-14T11:29:54;99368.25;;;16.70;28.79
5755;BME280;2902;42.130;24.732;2023-03-14T11:32:29;99372.69;;;16.76;28.80
5755;BME280;2902;42.130;24.732;2023-03-14T11:35:03;99350.28;;;17.27;45.40
5755;BME280;2902;42.130;24.732;2023-03-14T11:37:34;99351.72;;;18.17;45.76
5755;BME280;2902;42.130;24.732;2023-03-14T11:40:10;99358.13;;;18.32;30.17
5755;BME280;2902;42.130;24.732;2023-03-14T11:42:42;99353.91;;;18.58;27.21
5755;BME280;2902;42.130;24.732;2023-03-14T11:45:17;99346.47;;;18.27;27.20
5755;BME280;2902;42.130;24.732;2023-03-14T11:47:51;99341.41;;;18.30;27.01
5755;BME280;2902;42.130;24.732;2023-03-14T11:50:23;99332.63;;;18.18;27.01
5755;BME280;2902;42.130;24.732;2023-03-14T11:52:54;99322.66;;;17.59;27.95
5755;BME280;2902;42.130;24.732;2023-03-14T11:55:27;99313.03;;;17.63;27.67
5755;BME280;2902;42.130;24.732;2023-03-14T11:57:58;99311.72;;;17.33;28.34
5755;BME280;2902;42.130;24.732;2023-03-14T12:00:28;99294.91;;;16.93;28.68
5755;BME280;2902;42.130;24.732;2023-03-14T12:03:01;99289.38;;;16.99;28.75
5755;BME280;2902;42.130;24.732;2023-03-14T12:05:41;99289.09;;;17.12;28.45
5755;BME280;2902;42.130;24.732;2023-03-14T12:08:45;99263.72;;;17.20;28.57
5755;BME280;2902;42.130;24.732;2023-03-14T12:11:20;99266.31;;;17.15;28.86
5755;BME280;2902;42.130;24.732;2023-03-14T12:13:49;99250.22;;;17.15;29.03
5755;BME280;2902;42.130;24.732;2023-03-14T12:16:35;99246.78;;;17.03;29.25
5755;BME280;2902;42.130;24.732;2023-03-14T12:19:36;99230.03;;;16.96;29.21
5755;BME280;2902;42.130;24.732;2023-03-14T12:22:26;99237.97;;;16.74;30.24
5755;BME280;2902;42.130;24.732;2023-03-14T12:24:57;99227.63;;;16.50;30.14
5755;BME280;2902;42.130;24.732;2023-03-14T12:27:44;99216.47;;;16.30;31.03
5755;BME280;2902;42.130;24.732;2023-03-14T12:30:18;99216.94;;;15.87;31.54
5755;BME280;2902;42.130;24.732;2023-03-14T12:35:59;99203.22;;;15.83;32.75
5755;BME280;2902;42.130;24.732;2023-03-14T12:38:37;99199.53;;;16.13;34.44
5755;BME280;2902;42.130;24.732;2023-03-14T12:41:14;99188.34;;;16.44;36.56
5755;BME280;2902;42.130;24.732;2023-03-14T12:43:41;99187.75;;;16.70;34.09
5755;BME280;2902;42.130;24.732;2023-03-14T12:46:25;99184.75;;;16.83;32.91
5755;BME280;2902;42.130;24.732;2023-03-14T12:48:56;99184.63;;;16.61;31.70
5755;BME280;2902;42.130;24.732;2023-03-14T12:51:35;99181.72;;;16.63;32.59
5755;BME280;2902;42.130;24.732;2023-03-14T12:54:21;99170.16;;;16.62;32.55
5755;BME280;2902;42.130;24.732;2023-03-14T12:57:06;99162.38;;;16.61;34.89
5755;BME280;2902;42.130;24.732;2023-03-14T12:59:37;99164.31;;;16.49;32.45
5755;BME280;2902;42.130;24.732;2023-03-14T13:02:22;99164.75;;;16.74;31.98
5755;BME280;2902;42.130;24.732;2023-03-14T13:04:53;99171.31;;;16.50;31.97
5755;BME280;2902;42.130;24.732;2023-03-14T13:07:33;99159.44;;;16.46;32.01
5755;BME280;2902;42.130;24.732;2023-03-14T13:10:16;99160.59;;;16.50;32.57
5755;BME280;2902;42.130;24.732;2023-03-14T13:12:48;99158.66;;;16.62;32.36
5755;BME280;2902;42.130;24.732;2023-03-14T13:15:22;99149.50;;;16.46;32.41
5755;BME280;2902;42.130;24.732;2023-03-14T13:17:51;99141.41;;;16.58;32.37
5755;BME280;2902;42.130;24.732;2023-03-14T13:20:24;99136.38;;;16.61;31.88
5755;BME280;2902;42.130;24.732;2023-03-14T13:22:54;99141.72;;;16.45;32.43
5755;BME280;2902;42.130;24.732;2023-03-14T13:25:21;99132.91;;;16.33;32.61
5755;BME280;2902;42.130;24.732;2023-03-14T13:27:48;99123.81;;;16.34;32.55